createdAt,value
2022-10-18T00:00:57.310Z,13.60
2022-10-18T00:03:25.459Z,13.60
2022-10-18T00:05:53.459Z,13.60
2022-10-18T00:08:22.168Z,13.60
2022-10-18T00:10:50.591Z,13.60
2022-10-18T00:13:20.307Z,13.60
2022-10-18T00:15:52.225Z,13.60
2022-10-18T00:18:20.557Z,13.60
2022-10-18T00:20:58.492Z,13.50
2022-10-18T00:23:27.796Z,13.50
2022-10-18T00:26:03.948Z,13.40
2022-10-18T00:28:34.884Z,13.40
2022-10-18T00:31:12.282Z,13.40
2022-10-18T00:33:40.592Z,13.40
2022-10-18T00:36:08.834Z,13.40
2022-10-18T00:38:37.312Z,13.40
2022-10-18T00:41:06.833Z,13.40
2022-10-18T00:43:54.971Z,13.40
2022-10-18T00:46:22.981Z,13.40
2022-10-18T00:48:51.827Z,13.40
2022-10-18T00:51:22.114Z,13.40
2022-10-18T00:53:50.400Z,13.40
2022-10-18T00:56:19.038Z,13.40
2022-10-18T00:58:48.889Z,13.40
2022-10-18T01:01:18.295Z,13.50
2022-10-18T01:03:46.556Z,13.50
2022-10-18T01:06:14.524Z,13.60
2022-10-18T01:08:52.980Z,13.60
2022-10-18T01:11:42.554Z,13.70
2022-10-18T01:14:23.449Z,13.70
2022-10-18T01:17:00.815Z,13.70
2022-10-18T01:19:54.200Z,13.80
2022-10-18T01:22:27.155Z,13.80
2022-10-18T01:25:11.208Z,13.80
2022-10-18T01:27:48.845Z,13.80
2022-10-18T01:30:39.026Z,13.80
2022-10-18T01:33:15.339Z,13.90
2022-10-18T01:35:48.701Z,13.90
2022-10-18T01:38:18.888Z,13.90
2022-10-18T01:40:50.524Z,13.90
2022-10-18T01:43:20.909Z,13.90
2022-10-18T01:45:50.877Z,13.90
2022-10-18T01:48:19.353Z,13.80
2022-10-18T01:50:47.261Z,13.90
2022-10-18T01:53:30.357Z,13.80
2022-10-18T01:56:18.667Z,13.80
2022-10-18T01:58:56.171Z,13.90
2022-10-18T02:01:34.725Z,13.90
2022-10-18T02:04:10.701Z,13.90
2022-10-18T02:06:45.614Z,13.90
2022-10-18T02:09:19.106Z,13.90
2022-10-18T02:11:49.206Z,14.00
2022-10-18T02:14:21.318Z,14.00
2022-10-18T02:16:53.194Z,14.00
2022-10-18T02:19:27.166Z,14.00
2022-10-18T02:21:56.938Z,14.00
2022-10-18T02:24:28.577Z,14.10
2022-10-18T02:26:56.557Z,14.10
2022-10-18T02:29:25.093Z,14.10
2022-10-18T02:32:00.490Z,14.10
2022-10-18T02:34:33.142Z,14.20
2022-10-18T02:37:02.990Z,14.20
2022-10-18T02:39:33.528Z,14.20
2022-10-18T02:42:02.037Z,14.20
2022-10-18T02:44:29.996Z,14.20
2022-10-18T02:46:59.265Z,14.20
2022-10-18T02:49:27.334Z,14.20
2022-10-18T02:51:55.301Z,14.20
2022-10-18T02:54:23.793Z,14.20
2022-10-18T02:56:51.958Z,14.20
2022-10-18T02:59:19.885Z,14.30
2022-10-18T03:01:47.887Z,14.20
2022-10-18T03:04:17.383Z,14.20
2022-10-18T03:06:45.372Z,14.20
2022-10-18T03:09:13.311Z,14.20
2022-10-18T03:11:41.198Z,14.20
2022-10-18T03:14:09.158Z,14.20
2022-10-18T03:16:37.142Z,14.20
2022-10-18T03:19:05.213Z,14.30
2022-10-18T03:21:34.628Z,14.30
2022-10-18T03:24:03.402Z,14.20
2022-10-18T03:26:31.358Z,14.30
2022-10-18T03:28:59.418Z,14.30
2022-10-18T03:31:27.506Z,14.20
2022-10-18T03:33:55.686Z,14.20
2022-10-18T03:36:23.628Z,14.20
2022-10-18T03:38:52.957Z,14.20
2022-10-18T03:41:21.163Z,14.20
2022-10-18T03:43:49.098Z,14.20
2022-10-18T03:46:17.274Z,14.20
2022-10-18T03:48:45.255Z,14.20
2022-10-18T03:51:13.296Z,14.20
2022-10-18T03:53:41.448Z,14.20
2022-10-18T03:56:10.777Z,14.10
2022-10-18T03:58:38.749Z,14.10
2022-10-18T04:01:07.057Z,14.10
2022-10-18T04:03:35.104Z,14.10
2022-10-18T04:06:03.651Z,14.10
2022-10-18T04:08:31.612Z,14.10
2022-10-18T04:10:59.548Z,14.10
2022-10-18T04:13:28.860Z,14.10
2022-10-18T04:15:56.845Z,14.10
2022-10-18T04:18:24.760Z,14.20
2022-10-18T04:20:52.690Z,14.20
2022-10-18T04:23:20.731Z,14.30
2022-10-18T04:25:48.848Z,14.30
2022-10-18T04:28:23.197Z,14.30
2022-10-18T04:30:53.333Z,14.30
2022-10-18T04:33:22.126Z,14.20
2022-10-18T04:35:53.307Z,14.30
2022-10-18T04:38:21.596Z,14.30
2022-10-18T04:40:49.551Z,14.30
2022-10-18T04:43:17.531Z,14.30
2022-10-18T04:45:46.509Z,14.30
2022-10-18T04:48:15.901Z,14.30
2022-10-18T04:50:43.851Z,14.30
2022-10-18T04:53:11.785Z,14.30
2022-10-18T04:55:39.691Z,14.30
2022-10-18T04:58:07.594Z,14.30
2022-10-18T05:00:39.872Z,14.20
2022-10-18T05:03:08.554Z,14.20
2022-10-18T05:06:00.305Z,14.20
2022-10-18T05:08:25.856Z,14.20
2022-10-18T05:10:53.853Z,14.30
2022-10-18T05:13:21.853Z,14.20
2022-10-18T05:15:49.765Z,14.30
2022-10-18T05:18:17.719Z,14.30
2022-10-18T05:20:47.575Z,14.30
2022-10-18T05:23:15.534Z,14.30
2022-10-18T05:25:44.416Z,14.30
2022-10-18T05:28:34.527Z,14.20
2022-10-18T05:31:02.628Z,14.10
2022-10-18T05:33:31.195Z,14.00
2022-10-18T05:36:00.981Z,13.90
2022-10-18T05:38:30.974Z,13.90
2022-10-18T05:40:59.362Z,13.80
2022-10-18T05:43:29.540Z,13.80
2022-10-18T05:45:57.653Z,13.70
2022-10-18T05:48:26.575Z,13.70
2022-10-18T05:50:54.517Z,13.70
2022-10-18T05:53:39.115Z,13.70
2022-10-18T05:56:07.908Z,13.80
2022-10-18T05:58:36.491Z,13.80
2022-10-18T06:01:06.150Z,13.80
2022-10-18T06:03:34.838Z,13.80
2022-10-18T06:06:04.045Z,13.80
2022-10-18T06:08:34.077Z,13.80
2022-10-18T06:11:06.968Z,13.90
2022-10-18T06:13:34.919Z,13.90
2022-10-18T06:16:02.838Z,13.90
2022-10-18T06:18:30.781Z,14.00
2022-10-18T06:20:59.281Z,14.00
2022-10-18T06:23:27.459Z,14.10
2022-10-18T06:26:00.243Z,14.10
2022-10-18T06:28:28.791Z,14.20
2022-10-18T06:30:57.056Z,14.30
2022-10-18T06:33:25.198Z,14.30
2022-10-18T06:35:57.906Z,14.40
2022-10-18T06:38:26.277Z,14.40
2022-10-18T06:40:56.288Z,14.50
2022-10-18T06:43:24.723Z,14.50
2022-10-18T06:45:53.428Z,14.50
2022-10-18T06:48:22.201Z,14.50
2022-10-18T06:50:55.300Z,14.60
2022-10-18T06:53:23.237Z,14.60
2022-10-18T06:55:51.308Z,14.70
2022-10-18T06:58:20.655Z,14.70
2022-10-18T07:00:48.592Z,14.80
2022-10-18T07:03:16.584Z,14.80
2022-10-18T07:05:44.563Z,14.80
2022-10-18T07:08:12.521Z,14.80
2022-10-18T07:10:40.475Z,14.80
2022-10-18T07:13:31.058Z,14.90
2022-10-18T07:16:06.655Z,14.90
2022-10-18T07:18:35.585Z,14.90
2022-10-18T07:21:04.894Z,15.00
2022-10-18T07:23:34.354Z,15.00
2022-10-18T07:26:03.157Z,15.10
2022-10-18T07:28:31.412Z,15.20
2022-10-18T07:31:06.096Z,15.40
2022-10-18T07:33:35.797Z,15.40
2022-10-18T07:36:05.002Z,15.50
2022-10-18T07:38:33.395Z,15.60
2022-10-18T07:41:03.295Z,15.70
2022-10-18T07:43:31.719Z,15.80
2022-10-18T07:46:01.157Z,15.90
2022-10-18T07:48:29.471Z,16.10
2022-10-18T07:51:01.476Z,16.20
2022-10-18T07:53:30.477Z,16.20
2022-10-18T07:56:00.757Z,16.30
2022-10-18T07:58:31.676Z,16.40
2022-10-18T08:01:02.904Z,16.40
2022-10-18T08:03:30.889Z,16.50
2022-10-18T08:06:00.183Z,16.50
2022-10-18T08:08:28.938Z,16.60
2022-10-18T08:11:02.416Z,16.60
2022-10-18T08:13:30.860Z,16.80
2022-10-18T08:16:01.425Z,16.90
2022-10-18T08:18:30.021Z,17.00
2022-10-18T08:21:00.110Z,17.10
2022-10-18T08:23:29.569Z,17.20
2022-10-18T08:25:57.575Z,17.40
2022-10-18T08:28:25.572Z,17.50
2022-10-18T08:30:53.604Z,17.70
2022-10-18T08:33:21.569Z,17.90
2022-10-18T08:35:56.239Z,18.00
2022-10-18T08:38:24.247Z,18.30
2022-10-18T08:40:53.629Z,18.50
2022-10-18T08:43:30.586Z,18.80
2022-10-18T08:45:59.076Z,19.20
2022-10-18T08:48:34.241Z,19.50
2022-10-18T08:51:03.558Z,19.60
2022-10-18T08:53:40.089Z,19.70
2022-10-18T08:56:14.832Z,19.80
2022-10-18T08:58:44.929Z,19.90
2022-10-18T09:01:26.646Z,19.90
2022-10-18T09:04:22.241Z,19.90
2022-10-18T09:06:57.327Z,19.90
2022-10-18T09:09:36.492Z,19.90
2022-10-18T09:12:17.583Z,19.80
2022-10-18T09:15:12.999Z,19.70
2022-10-18T09:17:51.810Z,19.70
2022-10-18T09:20:25.016Z,19.70
2022-10-18T09:22:55.920Z,19.80
2022-10-18T09:25:26.674Z,19.90
2022-10-18T09:27:58.090Z,20.00
2022-10-18T09:30:37.939Z,20.10
2022-10-18T09:33:17.209Z,20.20
2022-10-18T09:35:51.617Z,20.30
2022-10-18T09:40:59.445Z,20.50
2022-10-18T09:43:41.620Z,20.50
2022-10-18T09:46:10.945Z,20.50
2022-10-18T09:48:46.270Z,20.60
2022-10-18T09:51:21.723Z,20.70
2022-10-18T09:54:18.380Z,20.70
2022-10-18T09:56:49.936Z,20.80
2022-10-18T09:59:32.514Z,20.80
2022-10-18T10:02:00.537Z,20.90
2022-10-18T10:04:28.558Z,21.00
2022-10-18T10:07:00.255Z,21.00
2022-10-18T10:09:29.803Z,21.10
2022-10-18T10:11:58.880Z,21.20
2022-10-18T10:14:30.711Z,21.30
2022-10-18T10:17:02.172Z,21.40
2022-10-18T10:19:33.166Z,21.60
2022-10-18T10:22:06.045Z,21.70
2022-10-18T10:24:47.462Z,21.90
2022-10-18T10:27:20.997Z,22.10
2022-10-18T10:29:57.688Z,22.30
2022-10-18T10:32:32.255Z,22.50
2022-10-18T10:35:00.485Z,22.80
2022-10-18T10:37:31.954Z,22.90
2022-10-18T10:40:20.510Z,23.00
2022-10-18T10:43:12.827Z,23.10
2022-10-18T10:46:04.697Z,23.10
2022-10-18T10:48:34.922Z,23.20
2022-10-18T10:51:06.500Z,23.30
2022-10-18T10:53:52.186Z,23.40
2022-10-18T10:56:25.062Z,23.40
2022-10-18T10:58:54.262Z,23.40
2022-10-18T11:01:31.099Z,23.30
2022-10-18T11:04:01.679Z,23.20
2022-10-18T11:06:44.807Z,23.10
2022-10-18T11:09:35.947Z,23.00
2022-10-18T11:12:13.295Z,23.00
2022-10-18T11:14:45.456Z,23.00
2022-10-18T11:17:23.435Z,23.00
2022-10-18T11:20:03.486Z,23.00
2022-10-18T11:22:36.143Z,23.10
2022-10-18T11:25:05.116Z,23.10
2022-10-18T11:27:37.267Z,23.00
2022-10-18T11:30:22.021Z,23.10
2022-10-18T11:32:59.689Z,23.10
2022-10-18T11:35:38.747Z,23.00
2022-10-18T11:38:21.469Z,23.00
2022-10-18T11:41:08.741Z,23.10
2022-10-18T11:44:01.170Z,23.10
2022-10-18T11:46:42.815Z,23.10
2022-10-18T11:49:32.962Z,23.10
2022-10-18T11:52:09.656Z,23.10
2022-10-18T11:54:50.072Z,23.10
2022-10-18T11:57:32.395Z,23.10
2022-10-18T12:00:09.001Z,23.20
2022-10-18T12:03:02.148Z,23.20
2022-10-18T12:05:33.375Z,23.10
2022-10-18T12:08:06.137Z,23.10
2022-10-18T12:10:53.131Z,23.10
2022-10-18T12:13:30.397Z,23.10
2022-10-18T12:15:58.758Z,23.20
2022-10-18T12:18:29.379Z,23.20
2022-10-18T12:21:00.305Z,23.20
2022-10-18T12:23:37.538Z,23.10
2022-10-18T12:26:07.688Z,23.10
2022-10-18T12:28:46.043Z,23.10
2022-10-18T12:31:21.541Z,23.10
2022-10-18T12:33:53.403Z,23.00
2022-10-18T12:36:40.589Z,22.90
2022-10-18T12:39:13.489Z,22.70
2022-10-18T12:41:41.449Z,22.60
2022-10-18T12:44:20.969Z,22.50
2022-10-18T12:46:52.318Z,22.40
2022-10-18T12:49:24.457Z,22.40
2022-10-18T12:51:58.469Z,22.40
2022-10-18T12:54:29.319Z,22.40
2022-10-18T12:56:57.395Z,22.40
2022-10-18T12:59:53.680Z,22.40
2022-10-18T13:02:28.320Z,22.30
2022-10-18T13:05:00.734Z,22.10
2022-10-18T13:07:44.666Z,21.90
2022-10-18T13:10:42.743Z,21.80
2022-10-18T13:13:45.720Z,21.70
2022-10-18T13:16:31.453Z,21.70
2022-10-18T13:19:03.324Z,21.70
2022-10-18T13:21:41.178Z,21.70
2022-10-18T13:24:27.799Z,21.70
2022-10-18T13:27:31.386Z,21.70
2022-10-18T13:30:21.485Z,21.70
2022-10-18T13:32:57.470Z,21.80
2022-10-18T13:35:46.644Z,21.80
2022-10-18T13:38:48.444Z,21.80
2022-10-18T13:41:20.414Z,21.80
2022-10-18T13:44:24.440Z,21.70
2022-10-18T13:47:12.227Z,21.50
2022-10-18T13:50:10.761Z,21.40
2022-10-18T13:53:10.266Z,21.30
2022-10-18T13:55:52.050Z,21.20
2022-10-18T13:58:34.945Z,21.10
2022-10-18T14:01:22.858Z,21.10
2022-10-18T14:04:32.420Z,21.10
2022-10-18T14:07:05.887Z,21.10
2022-10-18T14:09:44.937Z,21.20
2022-10-18T14:12:22.604Z,21.20
2022-10-18T14:14:57.712Z,21.20
2022-10-18T14:17:32.518Z,21.20
2022-10-18T14:20:05.837Z,21.20
2022-10-18T14:22:39.457Z,21.20
2022-10-18T14:25:20.880Z,21.20
2022-10-18T14:27:52.285Z,21.20
2022-10-18T14:30:24.159Z,21.10
2022-10-18T14:32:54.403Z,21.10
2022-10-18T14:35:32.466Z,21.10
2022-10-18T14:38:01.952Z,21.10
2022-10-18T14:40:37.749Z,21.00
2022-10-18T14:43:11.369Z,21.00
2022-10-18T14:45:42.712Z,21.00
2022-10-18T14:48:16.544Z,20.90
2022-10-18T14:50:46.868Z,21.00
2022-10-18T14:53:17.948Z,20.90
2022-10-18T14:55:54.815Z,20.90
2022-10-18T14:58:23.498Z,20.80
2022-10-18T15:00:52.824Z,20.70
2022-10-18T15:03:21.793Z,20.70
2022-10-18T15:05:54.760Z,20.70
2022-10-18T15:08:24.321Z,20.70
2022-10-18T15:10:53.048Z,20.60
2022-10-18T15:13:21.789Z,20.50
2022-10-18T15:15:50.636Z,20.40
2022-10-18T15:18:24.178Z,20.30
2022-10-18T15:21:21.223Z,20.30
2022-10-18T15:23:49.660Z,20.20
2022-10-18T15:26:24.093Z,20.10
2022-10-18T15:28:56.085Z,20.00
2022-10-18T15:31:27.263Z,20.00
2022-10-18T15:34:09.599Z,19.90
2022-10-18T15:36:38.145Z,19.90
2022-10-18T15:39:16.000Z,19.80
2022-10-18T15:41:48.822Z,19.80
2022-10-18T15:44:23.938Z,19.70
2022-10-18T15:46:54.637Z,19.70
2022-10-18T15:49:52.444Z,19.60
2022-10-18T15:52:42.208Z,19.60
2022-10-18T15:55:47.154Z,19.50
2022-10-18T15:58:20.654Z,19.50
2022-10-18T16:00:50.574Z,19.50
2022-10-18T16:03:20.312Z,19.50
2022-10-18T16:05:49.789Z,19.50
2022-10-18T16:08:21.036Z,19.50
2022-10-18T16:10:49.004Z,19.40
2022-10-18T16:13:17.010Z,19.40
2022-10-18T16:15:45.169Z,19.40
2022-10-18T16:18:16.743Z,19.30
2022-10-18T16:20:44.793Z,19.30
2022-10-18T16:23:22.500Z,19.20
2022-10-18T16:25:51.056Z,19.20
2022-10-18T16:28:44.256Z,19.20
2022-10-18T16:31:17.385Z,19.10
2022-10-18T16:33:45.648Z,19.10
2022-10-18T16:36:16.406Z,19.10
2022-10-18T16:38:46.787Z,19.00
2022-10-18T16:41:15.883Z,19.00
2022-10-18T16:43:44.742Z,19.00
2022-10-18T16:46:17.906Z,18.90
2022-10-18T16:48:46.448Z,18.90
2022-10-18T16:51:15.014Z,18.80
2022-10-18T16:53:43.090Z,18.80
2022-10-18T16:56:15.909Z,18.70
2022-10-18T16:58:44.544Z,18.70
2022-10-18T17:01:13.489Z,18.60
2022-10-18T17:03:41.692Z,18.60
2022-10-18T17:06:16.224Z,18.50
2022-10-18T17:08:44.931Z,18.50
2022-10-18T17:11:16.451Z,18.40
2022-10-18T17:13:45.430Z,18.30
2022-10-18T17:16:24.350Z,18.30
2022-10-18T17:18:52.381Z,18.20
2022-10-18T17:21:20.346Z,18.10
2022-10-18T17:23:48.418Z,18.10
2022-10-18T17:26:28.743Z,18.00
2022-10-18T17:28:59.587Z,17.90
2022-10-18T17:31:28.267Z,17.80
2022-10-18T17:33:56.249Z,17.70
2022-10-18T17:36:24.216Z,17.60
2022-10-18T17:38:52.531Z,17.60
2022-10-18T17:41:22.144Z,17.50
2022-10-18T17:43:50.491Z,17.40
2022-10-18T17:46:19.434Z,17.40
2022-10-18T17:48:47.661Z,17.30
2022-10-18T17:51:17.590Z,17.20
2022-10-18T17:53:46.032Z,17.10
2022-10-18T17:56:14.911Z,17.00
2022-10-18T17:58:45.280Z,17.00
2022-10-18T18:01:15.265Z,16.90
2022-10-18T18:03:43.527Z,16.90
2022-10-18T18:06:17.603Z,16.80
2022-10-18T18:08:46.130Z,16.80
2022-10-18T18:11:14.768Z,16.70
2022-10-18T18:13:44.229Z,16.70
2022-10-18T18:16:14.073Z,16.60
2022-10-18T18:18:42.727Z,16.60
2022-10-18T18:21:10.759Z,16.50
2022-10-18T18:23:38.751Z,16.40
2022-10-18T18:26:07.218Z,16.40
2022-10-18T18:28:36.017Z,16.40
2022-10-18T18:31:08.205Z,16.30
2022-10-18T18:33:36.709Z,16.30
2022-10-18T18:36:06.687Z,16.30
2022-10-18T18:38:35.834Z,16.20
2022-10-18T18:41:06.187Z,16.10
2022-10-18T18:43:34.996Z,16.10
2022-10-18T18:46:03.475Z,16.00
2022-10-18T18:48:33.880Z,16.00
2022-10-18T18:51:02.178Z,16.00
2022-10-18T18:53:30.805Z,16.00
2022-10-18T18:56:03.412Z,16.10
2022-10-18T18:58:31.503Z,16.10
2022-10-18T19:00:59.530Z,16.10
2022-10-18T19:03:27.600Z,16.10
2022-10-18T19:06:05.376Z,16.10
2022-10-18T19:08:35.092Z,16.00
2022-10-18T19:11:05.728Z,16.00
2022-10-18T19:13:35.237Z,15.90
2022-10-18T19:16:19.493Z,15.90
2022-10-18T19:18:56.484Z,15.80
2022-10-18T19:21:27.584Z,15.80
2022-10-18T19:23:56.103Z,15.80
2022-10-18T19:26:31.947Z,15.80
2022-10-18T19:29:05.936Z,15.70
2022-10-18T19:31:35.569Z,15.70
2022-10-18T19:34:04.759Z,15.60
2022-10-18T19:36:34.565Z,15.60
2022-10-18T19:39:03.107Z,15.60
2022-10-18T19:41:31.102Z,15.60
2022-10-18T19:43:59.175Z,15.60
2022-10-18T19:46:27.210Z,15.50
2022-10-18T19:48:55.331Z,15.50
2022-10-18T19:51:27.779Z,15.40
2022-10-18T19:53:58.070Z,15.30
2022-10-18T19:56:28.364Z,15.20
2022-10-18T19:58:57.020Z,15.20
2022-10-18T20:01:25.915Z,15.20
2022-10-18T20:03:53.989Z,15.20
2022-10-18T20:06:22.099Z,15.20
2022-10-18T20:08:50.635Z,15.20
2022-10-18T20:11:21.475Z,15.20
2022-10-18T20:13:50.111Z,15.20
2022-10-18T20:16:20.656Z,15.20
2022-10-18T20:18:55.227Z,15.20
2022-10-18T20:21:23.207Z,15.10
2022-10-18T20:23:51.253Z,15.10
2022-10-18T20:26:21.366Z,15.00
2022-10-18T20:28:56.023Z,14.90
2022-10-18T20:31:25.664Z,14.90
2022-10-18T20:33:58.200Z,14.80
2022-10-18T20:36:27.742Z,14.80
2022-10-18T20:38:56.171Z,14.80
2022-10-18T20:41:27.368Z,14.80
2022-10-18T20:43:57.154Z,14.80
2022-10-18T20:46:25.621Z,14.80
2022-10-18T20:48:54.716Z,14.80
2022-10-18T20:51:23.692Z,14.80
2022-10-18T20:53:53.261Z,14.70
2022-10-18T20:56:25.215Z,14.60
2022-10-18T20:58:56.532Z,14.60
2022-10-18T21:01:26.548Z,14.50
2022-10-18T21:03:56.782Z,14.50
2022-10-18T21:06:26.333Z,14.40
2022-10-18T21:08:55.258Z,14.30
2022-10-18T21:11:23.577Z,14.30
2022-10-18T21:13:52.512Z,14.30
2022-10-18T21:16:22.513Z,14.30
2022-10-18T21:18:50.483Z,14.30
2022-10-18T21:21:20.107Z,14.30
2022-10-18T21:23:48.489Z,14.30
2022-10-18T21:26:18.374Z,14.20
2022-10-18T21:28:47.102Z,14.10
2022-10-18T21:31:21.723Z,14.00
2022-10-18T21:33:53.862Z,13.90
2022-10-18T21:36:22.276Z,13.80
2022-10-18T21:38:50.683Z,13.90
2022-10-18T21:41:20.044Z,13.90
2022-10-18T21:43:49.920Z,13.90
2022-10-18T21:46:19.430Z,13.90
2022-10-18T21:48:50.848Z,13.90
2022-10-18T21:51:21.034Z,13.90
2022-10-18T21:53:50.939Z,13.90
2022-10-18T21:56:20.387Z,13.90
2022-10-18T21:58:49.073Z,13.90
2022-10-18T22:01:18.890Z,13.90
2022-10-18T22:03:50.267Z,13.80
2022-10-18T22:06:18.825Z,13.70
2022-10-18T22:08:50.593Z,13.70
2022-10-18T22:11:20.657Z,13.70
2022-10-18T22:13:48.708Z,13.60
2022-10-18T22:16:17.979Z,13.50
2022-10-18T22:18:48.548Z,13.50
2022-10-18T22:21:19.551Z,13.40
2022-10-18T22:23:49.498Z,13.40
2022-10-18T22:26:20.731Z,13.30
2022-10-18T22:28:54.134Z,13.20
2022-10-18T22:31:24.415Z,13.20
2022-10-18T22:33:55.761Z,13.10
2022-10-18T22:36:24.263Z,13.10
2022-10-18T22:38:52.301Z,13.10
2022-10-18T22:41:20.650Z,13.20
2022-10-18T22:43:48.636Z,13.20
2022-10-18T22:46:16.977Z,13.10
2022-10-18T22:48:45.609Z,13.10
2022-10-18T22:51:15.267Z,13.00
2022-10-18T22:53:43.339Z,13.00
2022-10-18T22:56:14.554Z,13.00
2022-10-18T22:58:42.601Z,13.00
2022-10-18T23:01:12.857Z,13.00
2022-10-18T23:03:41.470Z,13.00
2022-10-18T23:06:20.906Z,12.90
2022-10-18T23:08:48.948Z,12.90
2022-10-18T23:11:17.226Z,12.90
2022-10-18T23:13:45.462Z,12.90
2022-10-18T23:16:13.730Z,12.90
2022-10-18T23:18:42.170Z,12.90
2022-10-18T23:21:11.508Z,12.90
2022-10-18T23:23:43.191Z,12.90
2022-10-18T23:26:13.310Z,12.90
2022-10-18T23:28:43.187Z,12.90
2022-10-18T23:31:13.087Z,12.90
2022-10-18T23:33:42.228Z,13.00
2022-10-18T23:36:10.796Z,13.00
2022-10-18T23:38:40.743Z,13.00
2022-10-18T23:41:10.647Z,13.00
2022-10-18T23:43:38.802Z,13.10
2022-10-18T23:46:07.063Z,13.10
2022-10-18T23:48:35.130Z,13.10
2022-10-18T23:51:03.463Z,13.00
2022-10-18T23:53:31.793Z,13.00
2022-10-18T23:56:03.028Z,13.00
2022-10-18T23:58:32.621Z,13.00
